Cataratas del Iguazu, Argentina
Current Conditions -  °F | °C
As of 10:00 AM on Thursday 30 Oct 2014 (Local Time) from SARI Reporting Station
Broken Clouds Broken Clouds  
Wind Chill: 88°   Ceiling: 10000
Heat Index: 94°   Visibility: 6mi
Dew Point: 72°   Wind: 7mph
Humidity: 58%   Direction: 20°NNE
Pressure: 29.77"   Gusts: NA
Location:  25.67°S, 54.45°W
Report Text: SARI 301300Z 02006KT 9999 SCT030 BKN100BKN200 31/22 Q1008
Loading
Personal Weather Stations






























Interactive Weather Map
Tropical Storm Tracking
New forecast layout! Learn more

10-Day Weather Forecast

Advertisements
Track Severe Weather on mobile